createdAt,value
2023-03-18T00:08:24.600Z,76.85
2023-03-18T00:13:56.667Z,77.02
2023-03-18T00:19:28.608Z,77.36
2023-03-18T00:25:00.642Z,77.69
2023-03-18T00:30:32.497Z,77.94
2023-03-18T00:36:04.244Z,77.74
2023-03-18T00:41:36.614Z,79.04
2023-03-18T00:47:08.752Z,78.92
2023-03-18T00:52:40.806Z,79.06
2023-03-18T00:58:12.983Z,78.92
2023-03-18T01:03:45.078Z,78.69
2023-03-18T01:09:18.230Z,78.95
2023-03-18T01:14:50.086Z,79.20
2023-03-18T01:20:22.307Z,79.85
2023-03-18T01:25:54.915Z,78.65
2023-03-18T01:31:26.973Z,79.74
2023-03-18T01:36:59.119Z,78.49
2023-03-18T01:42:31.498Z,78.46
2023-03-18T01:48:03.411Z,79.52
2023-03-18T01:53:35.241Z,79.53
2023-03-18T01:59:07.010Z,80.01
2023-03-18T02:04:39.023Z,80.39
2023-03-18T02:10:11.039Z,80.41
2023-03-18T02:15:42.760Z,80.07
2023-03-18T02:21:14.636Z,80.43
2023-03-18T02:26:46.951Z,81.06
2023-03-18T02:32:18.818Z,80.77
2023-03-18T02:37:50.797Z,81.04
2023-03-18T02:43:23.181Z,80.99
2023-03-18T02:48:55.346Z,81.05
2023-03-18T02:54:27.305Z,80.89
2023-03-18T02:59:59.364Z,80.27
2023-03-18T03:05:31.110Z,81.93
2023-03-18T03:11:03.185Z,81.82
2023-03-18T03:16:35.050Z,81.37
2023-03-18T03:22:06.921Z,81.03
2023-03-18T03:27:38.424Z,81.01
2023-03-18T03:33:10.466Z,81.16
2023-03-18T03:38:42.800Z,80.21
2023-03-18T03:44:14.999Z,79.53
2023-03-18T03:49:47.630Z,78.83
2023-03-18T03:55:19.951Z,78.59
2023-03-18T04:00:52.000Z,78.51
2023-03-18T04:06:23.941Z,78.05
2023-03-18T04:11:56.020Z,77.51
2023-03-18T04:17:28.134Z,77.25
2023-03-18T04:23:00.412Z,77.17
2023-03-18T04:28:32.661Z,77.18
2023-03-18T04:34:04.744Z,77.06
2023-03-18T04:39:36.814Z,76.83
2023-03-18T04:45:08.723Z,76.88
2023-03-18T04:50:41.915Z,77.12
2023-03-18T04:56:14.512Z,77.06
2023-03-18T05:01:46.939Z,76.72
2023-03-18T05:07:19.048Z,76.59
2023-03-18T05:12:51.318Z,76.58
2023-03-18T05:18:23.518Z,76.32
2023-03-18T05:23:55.898Z,76.55
2023-03-18T05:29:28.415Z,76.73
2023-03-18T05:35:00.870Z,77.02
2023-03-18T05:40:33.475Z,77.38
2023-03-18T05:46:05.567Z,77.45
2023-03-18T05:51:39.674Z,77.26
2023-03-18T05:57:11.927Z,77.57
2023-03-18T06:02:44.002Z,77.20
2023-03-18T06:08:16.043Z,76.83
2023-03-18T06:13:48.047Z,76.88
2023-03-18T06:19:20.272Z,76.57
2023-03-18T06:24:52.145Z,76.40
2023-03-18T06:30:24.681Z,76.23
2023-03-18T06:35:56.824Z,76.00
2023-03-18T06:38:08.940Z,75.56
2023-03-18T06:49:13.418Z,74.92
2023-03-18T06:54:46.101Z,74.54
2023-03-18T07:02:39.803Z,73.23
2023-03-18T07:08:11.528Z,72.38
2023-03-18T07:13:43.484Z,71.56
2023-03-18T07:19:15.244Z,71.00
2023-03-18T07:24:46.803Z,70.10
2023-03-18T07:32:40.560Z,69.78
2023-03-18T07:38:12.401Z,68.60
2023-03-18T07:43:44.301Z,68.18
2023-03-18T07:49:16.117Z,68.36
2023-03-18T07:54:48.037Z,68.04
2023-03-18T08:00:19.886Z,67.66
2023-03-18T08:05:52.421Z,66.81
2023-03-18T08:11:24.143Z,66.75
2023-03-18T08:22:25.688Z,64.35
2023-03-18T08:27:57.462Z,61.70
2023-03-18T08:33:29.382Z,62.24
2023-03-18T08:39:01.112Z,61.77
2023-03-18T08:44:32.674Z,60.23
2023-03-18T08:50:04.633Z,57.79
2023-03-18T08:55:36.521Z,55.45
2023-03-18T09:01:11.376Z,53.63
2023-03-18T09:06:40.165Z,52.95
2023-03-18T09:12:12.130Z,50.59
2023-03-18T09:17:56.355Z,52.13
2023-03-18T09:23:15.994Z,51.30
2023-03-18T09:28:48.010Z,50.73
2023-03-18T09:34:19.801Z,49.45
2023-03-18T09:39:51.452Z,49.70
2023-03-18T09:45:23.290Z,53.73
2023-03-18T09:50:55.413Z,48.61
2023-03-18T09:56:27.079Z,51.66
2023-03-18T10:01:59.328Z,48.75
2023-03-18T10:07:31.263Z,45.24
2023-03-18T10:13:03.176Z,44.03
2023-03-18T10:18:35.521Z,45.45
2023-03-18T10:24:07.419Z,41.21
2023-03-18T10:29:39.303Z,40.47
2023-03-18T10:35:11.142Z,41.57
2023-03-18T10:40:42.661Z,42.07
2023-03-18T10:46:14.455Z,43.91
2023-03-18T10:51:45.994Z,42.28
2023-03-18T10:57:17.554Z,40.30
2023-03-18T11:02:49.529Z,39.22
2023-03-18T11:08:21.165Z,39.46
2023-03-18T11:19:22.028Z,39.58
2023-03-18T11:24:53.814Z,41.12
2023-03-18T11:30:33.987Z,37.80
2023-03-18T11:35:57.458Z,38.11
2023-03-18T11:41:29.371Z,40.97
2023-03-18T11:47:01.327Z,40.78
2023-03-18T11:52:33.105Z,41.41
2023-03-18T11:58:05.150Z,39.90
2023-03-18T12:03:37.093Z,41.01
2023-03-18T12:09:09.278Z,41.07
2023-03-18T12:14:40.922Z,40.39
2023-03-18T12:20:13.098Z,40.59
2023-03-18T12:25:45.166Z,40.13
2023-03-18T12:31:16.820Z,41.92
2023-03-18T12:36:48.734Z,40.23
2023-03-18T12:42:20.760Z,40.57
2023-03-18T12:47:52.804Z,40.72
2023-03-18T12:53:24.596Z,40.52
2023-03-18T13:04:26.489Z,40.07
2023-03-18T13:09:59.652Z,41.36
2023-03-18T13:15:31.845Z,40.39
2023-03-18T13:21:03.679Z,40.62
2023-03-18T13:26:35.470Z,40.57
2023-03-18T13:32:07.766Z,40.24
2023-03-18T13:37:39.876Z,41.06
2023-03-18T13:43:11.426Z,41.81
2023-03-18T13:48:43.352Z,41.21
2023-03-18T13:54:15.039Z,41.47
2023-03-18T13:59:46.535Z,41.74
2023-03-18T14:05:18.610Z,41.97
2023-03-18T14:10:50.445Z,41.83
2023-03-18T14:16:22.727Z,40.75
2023-03-18T14:21:54.451Z,41.94
2023-03-18T14:27:26.371Z,41.80
2023-03-18T14:32:58.066Z,41.65
2023-03-18T14:38:30.047Z,41.67
2023-03-18T14:44:02.173Z,41.43
2023-03-18T14:49:34.703Z,41.27
2023-03-18T14:55:06.640Z,40.40
2023-03-18T15:00:39.023Z,40.77
2023-03-18T15:06:11.489Z,40.78
2023-03-18T15:11:43.921Z,40.95
2023-03-18T15:17:16.760Z,41.24
2023-03-18T15:22:48.775Z,41.69
2023-03-18T15:28:20.338Z,41.35
2023-03-18T15:33:52.539Z,41.13
2023-03-18T15:39:25.474Z,40.62
2023-03-18T15:44:57.470Z,40.93
2023-03-18T15:50:29.246Z,40.42
2023-03-18T15:56:01.269Z,40.92
2023-03-18T16:01:33.437Z,42.28
2023-03-18T16:07:05.137Z,42.34
2023-03-18T16:12:37.133Z,42.38
2023-03-18T16:18:09.291Z,42.84
2023-03-18T16:23:41.050Z,42.64
2023-03-18T16:29:12.720Z,43.13
2023-03-18T16:34:46.691Z,43.73
2023-03-18T16:40:16.384Z,44.26
2023-03-18T16:45:48.012Z,44.67
2023-03-18T16:51:20.088Z,44.40
2023-03-18T16:56:53.363Z,44.89
2023-03-18T17:02:25.863Z,44.65
2023-03-18T17:07:58.050Z,44.92
2023-03-18T17:13:29.971Z,45.17
2023-03-18T17:19:01.932Z,45.08
2023-03-18T17:24:33.885Z,45.39
2023-03-18T17:30:06.370Z,45.63
2023-03-18T17:35:38.307Z,45.76
2023-03-18T17:41:10.220Z,46.90
2023-03-18T17:46:42.355Z,47.28
2023-03-18T17:52:15.156Z,47.00
2023-03-18T17:57:47.490Z,48.52
2023-03-18T18:03:19.540Z,49.37
2023-03-18T18:08:51.773Z,48.40
2023-03-18T18:14:24.074Z,49.02
2023-03-18T18:19:56.585Z,49.89
2023-03-18T18:25:28.402Z,50.40
2023-03-18T18:42:00.379Z,51.60
2023-03-18T18:47:32.525Z,52.65
2023-03-18T18:53:04.179Z,54.36
2023-03-18T18:58:36.498Z,55.24
2023-03-18T19:04:09.165Z,55.40
2023-03-18T19:09:41.459Z,54.30
2023-03-18T19:15:15.467Z,55.26
2023-03-18T19:20:44.797Z,55.69
2023-03-18T19:26:16.947Z,58.08
2023-03-18T19:31:49.109Z,56.94
2023-03-18T19:37:21.131Z,58.13
2023-03-18T19:42:53.739Z,59.11
2023-03-18T19:48:25.855Z,58.94
2023-03-18T19:53:58.080Z,59.55
2023-03-18T19:59:38.275Z,59.79
2023-03-18T20:05:02.054Z,59.77
2023-03-18T20:10:34.737Z,60.59
2023-03-18T20:16:07.175Z,61.88
2023-03-18T20:21:39.861Z,62.15
2023-03-18T20:27:11.883Z,60.74
2023-03-18T20:32:44.263Z,62.75
2023-03-18T20:38:16.601Z,62.48
2023-03-18T20:43:48.546Z,61.87
2023-03-18T20:45:59.747Z,61.58
2023-03-18T20:51:31.797Z,64.14
2023-03-18T20:57:03.956Z,61.85
2023-03-18T21:02:35.938Z,64.21
2023-03-18T21:08:07.833Z,63.59
2023-03-18T21:13:39.581Z,63.00
2023-03-18T21:19:11.674Z,65.29
2023-03-18T21:24:43.736Z,63.45
2023-03-18T21:30:15.284Z,63.97
2023-03-18T21:35:47.519Z,65.18
2023-03-18T21:41:19.583Z,67.22
2023-03-18T21:46:51.515Z,65.36
2023-03-18T21:52:23.716Z,65.64
2023-03-18T21:57:55.819Z,67.93
2023-03-18T22:03:27.985Z,66.63
2023-03-18T22:09:00.381Z,66.43
2023-03-18T22:14:32.594Z,67.33
2023-03-18T22:20:05.137Z,64.71
2023-03-18T22:25:37.145Z,65.94
2023-03-18T22:31:09.284Z,67.98
2023-03-18T22:36:41.024Z,69.13
2023-03-18T22:42:12.870Z,69.49
2023-03-18T22:47:44.665Z,70.49
2023-03-18T22:53:16.993Z,70.59
2023-03-18T22:58:49.135Z,69.67
2023-03-18T23:04:21.161Z,68.08
2023-03-18T23:15:23.078Z,71.73
2023-03-18T23:20:55.413Z,72.45
2023-03-18T23:26:27.268Z,73.89
2023-03-18T23:31:59.404Z,71.73
2023-03-18T23:37:31.739Z,71.00
2023-03-18T23:43:03.833Z,70.91
2023-03-18T23:48:35.676Z,70.94
2023-03-18T23:54:08.787Z,70.85
2023-03-18T23:59:40.766Z,71.43
